createdAt,value
2022-10-30T00:01:40.046Z,96.81
2022-10-30T00:04:09.292Z,96.03
2022-10-30T00:06:38.645Z,94.18
2022-10-30T00:09:07.964Z,96.88
2022-10-30T00:11:37.541Z,93.67
2022-10-30T00:14:06.885Z,93.25
2022-10-30T00:16:37.562Z,97.22
2022-10-30T00:19:06.921Z,94.50
2022-10-30T00:21:36.149Z,93.52
2022-10-30T00:24:05.641Z,94.08
2022-10-30T00:26:34.807Z,95.97
2022-10-30T00:29:04.092Z,95.65
2022-10-30T00:31:33.404Z,96.81
2022-10-30T00:34:04.011Z,98.04
2022-10-30T00:36:33.911Z,98.27
2022-10-30T00:39:04.004Z,96.94
2022-10-30T00:41:33.641Z,98.59
2022-10-30T00:44:02.934Z,97.29
2022-10-30T00:46:34.529Z,95.35
2022-10-30T00:49:13.864Z,94.85
2022-10-30T00:51:47.231Z,96.18
2022-10-30T00:54:18.918Z,97.63
2022-10-30T00:56:49.817Z,95.74
2022-10-30T00:59:24.099Z,96.83
2022-10-30T01:01:54.676Z,96.20
2022-10-30T01:04:29.166Z,96.62
2022-10-30T01:07:00.409Z,100.00
2022-10-30T01:09:29.785Z,100.00
2022-10-30T01:11:59.435Z,100.00
2022-10-30T01:14:28.753Z,100.00
2022-10-30T01:17:13.267Z,100.00
2022-10-30T01:19:49.485Z,100.00
2022-10-30T01:22:32.089Z,100.00
2022-10-30T01:25:08.644Z,100.00
2022-10-30T01:27:41.608Z,100.00
2022-10-30T01:30:21.797Z,100.00
2022-10-30T01:33:07.200Z,100.00
2022-10-30T01:35:42.183Z,100.00
2022-10-30T01:38:16.260Z,100.00
2022-10-30T01:40:45.991Z,99.15
2022-10-30T01:43:16.024Z,100.00
2022-10-30T01:46:03.632Z,99.47
2022-10-30T01:48:46.491Z,100.00
2022-10-30T01:51:25.565Z,98.99
2022-10-30T01:54:00.593Z,100.00
2022-10-30T01:56:35.986Z,100.00
2022-10-30T01:59:10.519Z,98.41
2022-10-30T02:01:40.498Z,100.00
2022-10-30T02:04:10.808Z,99.63
2022-10-30T02:06:42.212Z,96.17
2022-10-30T02:09:11.798Z,97.26
2022-10-30T02:11:41.124Z,96.18
2022-10-30T02:14:11.858Z,98.51
2022-10-30T02:16:46.357Z,95.58
2022-10-30T02:19:15.664Z,97.64
2022-10-30T02:21:46.300Z,97.95
2022-10-30T02:24:15.983Z,97.60
2022-10-30T02:26:45.290Z,95.35
2022-10-30T02:29:14.773Z,95.76
2022-10-30T02:31:44.025Z,97.43
2022-10-30T02:34:13.652Z,100.00
2022-10-30T02:36:42.973Z,100.00
2022-10-30T02:39:13.653Z,98.94
2022-10-30T02:41:43.307Z,100.00
2022-10-30T02:44:12.517Z,100.00
2022-10-30T02:46:42.383Z,100.00
2022-10-30T02:49:11.765Z,100.00
2022-10-30T02:51:41.020Z,100.00
2022-10-30T02:54:10.260Z,100.00
2022-10-30T02:56:42.627Z,99.89
2022-10-30T02:59:12.000Z,100.00
2022-10-30T03:01:41.769Z,97.74
2022-10-30T03:04:11.112Z,97.62
2022-10-30T03:06:40.269Z,96.61
2022-10-30T03:09:09.685Z,98.48
2022-10-30T03:11:40.397Z,97.80
2022-10-30T03:14:09.939Z,96.02
2022-10-30T03:16:39.640Z,96.30
2022-10-30T03:19:09.768Z,95.82
2022-10-30T03:21:39.271Z,95.09
2022-10-30T03:24:08.806Z,94.12
2022-10-30T03:26:39.508Z,98.38
2022-10-30T03:29:08.894Z,97.21
2022-10-30T03:31:38.266Z,96.15
2022-10-30T03:34:07.617Z,93.13
2022-10-30T03:36:36.994Z,94.41
2022-10-30T03:39:06.520Z,94.82
2022-10-30T03:41:35.792Z,96.96
2022-10-30T03:44:06.787Z,94.66
2022-10-30T03:46:35.928Z,91.97
2022-10-30T03:49:05.237Z,93.87
2022-10-30T03:51:34.652Z,93.11
2022-10-30T03:54:03.987Z,94.01
2022-10-30T03:56:33.424Z,94.67
2022-10-30T03:59:02.992Z,93.00
2022-10-30T04:01:33.819Z,92.96
2022-10-30T04:04:03.272Z,91.95
2022-10-30T04:06:32.728Z,95.26
2022-10-30T04:09:02.140Z,92.78
2022-10-30T04:11:31.561Z,94.18
2022-10-30T04:14:00.917Z,91.03
2022-10-30T04:16:30.438Z,93.52
2022-10-30T04:19:01.274Z,91.16
2022-10-30T04:21:30.572Z,93.37
2022-10-30T04:23:59.882Z,92.42
2022-10-30T04:26:29.658Z,90.16
2022-10-30T04:28:58.904Z,87.10
2022-10-30T04:31:28.382Z,87.43
2022-10-30T04:33:57.665Z,90.28
2022-10-30T04:36:30.888Z,91.22
2022-10-30T04:39:00.117Z,93.73
2022-10-30T04:41:29.469Z,90.59
2022-10-30T04:43:58.945Z,88.18
2022-10-30T04:46:28.176Z,91.01
2022-10-30T04:48:57.485Z,98.74
2022-10-30T04:51:28.285Z,92.03
2022-10-30T04:53:58.856Z,92.14
2022-10-30T04:56:28.072Z,90.33
2022-10-30T04:58:57.045Z,93.15
2022-10-30T05:01:26.310Z,92.99
2022-10-30T05:03:56.040Z,91.95
2022-10-30T05:06:28.045Z,94.33
2022-10-30T05:08:57.924Z,90.65
2022-10-30T05:11:27.447Z,90.31
2022-10-30T05:13:56.948Z,88.96
2022-10-30T05:16:25.976Z,91.79
2022-10-30T05:18:55.221Z,89.88
2022-10-30T05:21:24.440Z,87.63
2022-10-30T05:23:55.222Z,89.05
2022-10-30T05:26:24.569Z,88.10
2022-10-30T05:28:54.142Z,92.29
2022-10-30T05:31:23.352Z,87.20
2022-10-30T05:33:52.682Z,87.41
2022-10-30T05:36:21.908Z,89.17
2022-10-30T05:38:51.182Z,91.15
2022-10-30T05:41:21.781Z,89.32
2022-10-30T05:43:51.012Z,91.80
2022-10-30T05:46:20.321Z,88.89
2022-10-30T05:48:49.900Z,89.01
2022-10-30T05:51:19.379Z,87.90
2022-10-30T05:53:50.108Z,89.43
2022-10-30T05:56:20.638Z,89.12
2022-10-30T05:58:51.207Z,89.25
2022-10-30T06:01:20.745Z,91.37
2022-10-30T06:03:50.471Z,89.06
2022-10-30T06:06:19.819Z,90.88
2022-10-30T06:08:49.355Z,88.78
2022-10-30T06:11:20.052Z,91.54
2022-10-30T06:13:50.123Z,90.07
2022-10-30T06:16:19.371Z,91.28
2022-10-30T06:18:48.595Z,92.22
2022-10-30T06:21:17.959Z,92.71
2022-10-30T06:23:49.081Z,89.46
2022-10-30T06:26:20.052Z,91.27
2022-10-30T06:28:49.241Z,91.80
2022-10-30T06:31:18.673Z,90.52
2022-10-30T06:33:47.832Z,92.98
2022-10-30T06:36:17.536Z,91.41
2022-10-30T06:38:46.844Z,91.57
2022-10-30T06:41:16.094Z,90.69
2022-10-30T06:43:46.729Z,100.00
2022-10-30T06:46:15.966Z,99.46
2022-10-30T06:48:45.615Z,99.30
2022-10-30T06:51:16.712Z,98.42
2022-10-30T06:53:45.948Z,98.33
2022-10-30T06:56:15.442Z,94.46
2022-10-30T06:58:46.188Z,94.64
2022-10-30T07:01:15.528Z,94.06
2022-10-30T07:03:44.907Z,94.84
2022-10-30T07:06:14.561Z,94.30
2022-10-30T07:08:43.774Z,96.08
2022-10-30T07:11:13.100Z,94.09
2022-10-30T07:13:42.668Z,95.74
2022-10-30T07:16:13.405Z,93.93
2022-10-30T07:18:42.958Z,95.80
2022-10-30T07:21:13.330Z,98.10
2022-10-30T07:23:42.510Z,100.00
2022-10-30T07:26:11.788Z,100.00
2022-10-30T07:28:41.024Z,100.00
2022-10-30T07:31:12.589Z,100.00
2022-10-30T07:33:41.908Z,100.00
2022-10-30T07:36:12.704Z,100.00
2022-10-30T07:38:41.983Z,100.00
2022-10-30T07:41:11.161Z,97.47
2022-10-30T07:43:40.354Z,99.15
2022-10-30T07:46:09.648Z,100.00
2022-10-30T07:48:40.360Z,100.00
2022-10-30T07:51:09.621Z,99.12
2022-10-30T07:53:38.827Z,99.42
2022-10-30T07:56:11.355Z,100.00
2022-10-30T07:58:45.257Z,100.00
2022-10-30T08:01:15.029Z,100.00
2022-10-30T08:03:45.722Z,100.00
2022-10-30T08:06:15.257Z,100.00
2022-10-30T08:08:44.473Z,100.00
2022-10-30T08:11:13.775Z,100.00
2022-10-30T08:13:43.196Z,100.00
2022-10-30T08:16:12.933Z,100.00
2022-10-30T08:18:42.793Z,99.65
2022-10-30T08:21:13.542Z,99.49
2022-10-30T08:23:44.846Z,99.92
2022-10-30T08:26:14.873Z,100.00
2022-10-30T08:28:44.157Z,100.00
2022-10-30T08:31:13.349Z,100.00
2022-10-30T08:33:42.841Z,100.00
2022-10-30T08:36:13.545Z,100.00
2022-10-30T08:38:43.348Z,100.00
2022-10-30T08:41:12.664Z,100.00
2022-10-30T08:43:41.976Z,100.00
2022-10-30T08:46:11.208Z,100.00
2022-10-30T08:48:40.492Z,100.00
2022-10-30T08:51:09.996Z,99.11
2022-10-30T08:53:40.696Z,100.00
2022-10-30T08:56:10.308Z,99.60
2022-10-30T08:58:39.473Z,99.17
2022-10-30T09:01:08.818Z,100.00
2022-10-30T09:03:39.060Z,99.43
2022-10-30T09:06:08.644Z,100.00
2022-10-30T09:08:39.362Z,100.00
2022-10-30T09:11:08.939Z,100.00
2022-10-30T09:13:38.239Z,100.00
2022-10-30T09:16:08.020Z,100.00
2022-10-30T09:18:37.216Z,98.15
2022-10-30T09:21:06.712Z,97.30
2022-10-30T09:23:35.973Z,94.34
2022-10-30T09:26:07.337Z,91.34
2022-10-30T09:28:36.572Z,91.64
2022-10-30T09:31:06.361Z,89.26
2022-10-30T09:33:35.665Z,90.67
2022-10-30T09:36:05.317Z,90.94
2022-10-30T09:38:34.791Z,87.40
2022-10-30T09:41:17.419Z,90.13
2022-10-30T09:43:55.663Z,88.79
2022-10-30T09:46:37.121Z,87.17
2022-10-30T09:49:39.374Z,90.76
2022-10-30T09:52:31.087Z,86.63
2022-10-30T09:55:15.215Z,86.84
2022-10-30T09:57:50.833Z,86.45
2022-10-30T10:00:22.854Z,81.03
2022-10-30T10:03:00.807Z,82.23
2022-10-30T10:05:33.984Z,79.38
2022-10-30T10:08:10.452Z,81.15
2022-10-30T10:10:43.418Z,85.22
2022-10-30T10:13:29.341Z,77.63
2022-10-30T10:16:14.008Z,82.04
2022-10-30T10:18:58.590Z,78.16
2022-10-30T10:21:30.776Z,81.10
2022-10-30T10:24:19.818Z,73.93
2022-10-30T10:30:02.354Z,78.66
2022-10-30T10:33:02.348Z,70.63
2022-10-30T10:35:51.057Z,66.67
2022-10-30T10:38:28.136Z,64.63
2022-10-30T10:41:17.487Z,67.09
2022-10-30T10:44:08.274Z,66.95
2022-10-30T10:47:34.652Z,62.91
2022-10-30T10:50:42.458Z,68.02
2022-10-30T10:53:47.534Z,63.17
2022-10-30T10:56:49.352Z,64.38
2022-10-30T10:59:31.045Z,60.84
2022-10-30T11:09:38.486Z,58.03
2022-10-30T11:12:21.226Z,56.68
2022-10-30T11:15:17.973Z,58.65
2022-10-30T11:18:32.696Z,57.44
2022-10-30T11:21:50.782Z,53.70
2022-10-30T11:24:32.051Z,55.07
2022-10-30T11:27:18.830Z,56.71
2022-10-30T11:29:54.077Z,58.23
2022-10-30T11:32:27.523Z,55.94
2022-10-30T11:35:03.493Z,53.13
2022-10-30T11:37:35.796Z,56.61
2022-10-30T11:40:07.879Z,55.42
2022-10-30T11:42:37.354Z,56.35
2022-10-30T11:45:07.499Z,58.74
2022-10-30T11:47:38.960Z,53.83
2022-10-30T11:50:16.321Z,51.67
2022-10-30T11:52:47.712Z,54.39
2022-10-30T11:55:19.867Z,52.43
2022-10-30T11:57:51.734Z,48.82
2022-10-30T12:00:24.184Z,49.33
2022-10-30T12:02:54.961Z,49.41
2022-10-30T12:05:36.213Z,53.21
2022-10-30T12:08:23.306Z,47.97
2022-10-30T12:11:03.063Z,46.98
2022-10-30T12:13:40.000Z,46.00
2022-10-30T12:16:16.451Z,46.19
2022-10-30T12:18:58.337Z,45.93
2022-10-30T12:21:28.562Z,50.34
2022-10-30T12:24:06.860Z,49.74
2022-10-30T12:26:37.037Z,47.72
2022-10-30T12:29:08.083Z,47.91
2022-10-30T12:31:40.690Z,49.00
2022-10-30T12:34:19.591Z,44.89
2022-10-30T12:36:53.572Z,48.97
2022-10-30T12:39:29.581Z,50.90
2022-10-30T12:42:02.524Z,51.16
2022-10-30T12:44:35.496Z,50.81
2022-10-30T12:47:08.128Z,45.18
2022-10-30T12:49:43.035Z,48.85
2022-10-30T12:52:16.328Z,49.42
2022-10-30T12:54:53.761Z,47.57
2022-10-30T12:57:25.932Z,51.40
2022-10-30T13:00:03.713Z,52.63
2022-10-30T13:02:44.387Z,50.31
2022-10-30T13:05:27.921Z,48.13
2022-10-30T13:08:06.628Z,47.93
2022-10-30T13:10:41.725Z,50.31
2022-10-30T13:13:15.847Z,46.02
2022-10-30T13:15:48.888Z,48.59
2022-10-30T13:18:20.453Z,50.29
2022-10-30T13:21:00.902Z,52.03
2022-10-30T13:23:36.525Z,49.20
2022-10-30T13:26:13.307Z,48.78
2022-10-30T13:28:48.613Z,49.44
2022-10-30T13:31:23.684Z,50.52
2022-10-30T13:34:01.174Z,50.70
2022-10-30T13:36:37.129Z,50.98
2022-10-30T13:39:20.237Z,52.47
2022-10-30T13:42:16.217Z,51.49
2022-10-30T13:44:56.174Z,51.86
2022-10-30T13:47:34.023Z,53.23
2022-10-30T13:50:24.481Z,54.13
2022-10-30T13:52:57.247Z,54.36
2022-10-30T13:55:29.634Z,54.10
2022-10-30T13:58:04.623Z,58.78
2022-10-30T14:00:54.021Z,60.79
2022-10-30T14:04:38.935Z,61.10
2022-10-30T14:07:30.122Z,65.10
2022-10-30T14:10:08.788Z,56.99
2022-10-30T14:13:14.492Z,58.00
2022-10-30T14:15:46.793Z,58.89
2022-10-30T14:18:51.827Z,58.85
2022-10-30T14:21:44.846Z,61.31
2022-10-30T14:24:21.734Z,60.24
2022-10-30T14:27:11.224Z,60.37
2022-10-30T14:29:50.947Z,58.91
2022-10-30T14:32:51.787Z,55.88
2022-10-30T14:35:42.411Z,60.93
2022-10-30T14:38:27.650Z,61.66
2022-10-30T14:41:12.754Z,59.39
2022-10-30T14:43:51.988Z,62.62
2022-10-30T14:46:27.700Z,62.50
2022-10-30T14:49:11.658Z,61.21
2022-10-30T14:51:44.991Z,62.74
2022-10-30T14:54:20.957Z,64.52
2022-10-30T14:56:52.772Z,61.20
2022-10-30T14:59:33.320Z,63.82
2022-10-30T15:02:28.749Z,65.83
2022-10-30T15:05:24.431Z,68.88
2022-10-30T15:07:58.166Z,69.93
2022-10-30T15:10:31.047Z,72.20
2022-10-30T15:13:09.818Z,74.02
2022-10-30T15:15:39.877Z,76.60
2022-10-30T15:18:14.335Z,78.67
2022-10-30T15:20:44.964Z,80.94
2022-10-30T15:23:29.491Z,81.43
2022-10-30T15:26:08.123Z,82.34
2022-10-30T15:28:39.074Z,82.63
2022-10-30T15:31:14.962Z,83.18
2022-10-30T15:33:46.233Z,83.61
2022-10-30T15:36:19.957Z,84.15
2022-10-30T15:39:05.798Z,84.06
2022-10-30T15:41:39.145Z,84.61
2022-10-30T15:44:08.845Z,85.11
2022-10-30T15:46:38.660Z,85.21
2022-10-30T15:49:09.632Z,85.07
2022-10-30T15:51:39.005Z,86.17
2022-10-30T15:54:11.157Z,86.41
2022-10-30T15:57:18.011Z,86.08
2022-10-30T15:59:35.189Z,87.39
2022-10-30T16:02:17.203Z,86.81
2022-10-30T16:04:48.352Z,87.47
2022-10-30T16:07:20.723Z,88.05
2022-10-30T16:09:56.884Z,87.60
2022-10-30T16:12:27.319Z,88.56
2022-10-30T16:14:57.141Z,88.61
2022-10-30T16:17:27.649Z,88.61
2022-10-30T16:20:02.093Z,89.04
2022-10-30T16:22:37.663Z,89.58
2022-10-30T16:25:10.064Z,90.09
2022-10-30T16:27:46.381Z,91.09
2022-10-30T16:30:16.661Z,91.29
2022-10-30T16:32:52.856Z,91.90
2022-10-30T16:35:24.895Z,90.80
2022-10-30T16:37:54.643Z,91.13
2022-10-30T16:40:26.622Z,90.53
2022-10-30T16:43:00.337Z,91.33
2022-10-30T16:45:49.148Z,91.57
2022-10-30T16:48:28.000Z,92.57
2022-10-30T16:51:03.383Z,92.61
2022-10-30T16:53:33.280Z,92.76
2022-10-30T16:56:02.971Z,92.78
2022-10-30T16:58:33.431Z,93.04
2022-10-30T17:01:07.577Z,92.06
2022-10-30T17:03:39.594Z,92.49
2022-10-30T17:06:29.043Z,91.91
2022-10-30T17:09:01.072Z,92.25
2022-10-30T17:11:39.104Z,93.63
2022-10-30T17:14:19.460Z,93.41
2022-10-30T17:17:00.276Z,93.24
2022-10-30T17:19:46.357Z,92.71
2022-10-30T17:22:20.779Z,90.35
2022-10-30T17:24:51.845Z,91.04
2022-10-30T17:27:48.511Z,89.52
2022-10-30T17:30:35.871Z,92.10
2022-10-30T17:33:22.868Z,93.27
2022-10-30T17:38:23.680Z,93.19
2022-10-30T17:40:53.373Z,93.69
2022-10-30T17:43:23.825Z,94.78
2022-10-30T17:45:53.503Z,93.78
2022-10-30T17:48:25.423Z,94.08
2022-10-30T17:50:55.167Z,94.47
2022-10-30T17:53:28.251Z,94.72
2022-10-30T17:56:01.351Z,94.55
2022-10-30T17:58:31.060Z,94.94
2022-10-30T18:01:00.827Z,95.59
2022-10-30T18:03:31.213Z,95.37
2022-10-30T18:06:04.544Z,94.31
2022-10-30T18:08:35.675Z,94.38
2022-10-30T18:11:05.368Z,94.78
2022-10-30T18:13:36.476Z,95.49
2022-10-30T18:16:07.137Z,94.68
2022-10-30T18:18:37.159Z,95.44
2022-10-30T18:21:07.403Z,96.97
2022-10-30T18:23:51.773Z,96.12
2022-10-30T18:26:23.660Z,94.84
2022-10-30T18:28:54.168Z,95.99
2022-10-30T18:31:25.620Z,96.04
2022-10-30T18:33:55.238Z,95.12
2022-10-30T18:36:26.068Z,94.91
2022-10-30T18:38:58.587Z,96.44
2022-10-30T18:41:32.272Z,96.28
2022-10-30T18:44:02.449Z,97.96
2022-10-30T18:46:33.251Z,97.40
2022-10-30T18:49:02.594Z,98.26
2022-10-30T18:51:33.584Z,97.97
2022-10-30T18:54:05.510Z,97.80
2022-10-30T18:56:35.157Z,99.06
2022-10-30T18:59:06.849Z,99.61
2022-10-30T19:01:37.667Z,97.46
2022-10-30T19:04:11.667Z,97.49
2022-10-30T19:06:41.691Z,98.85
2022-10-30T19:09:13.792Z,98.46
2022-10-30T19:11:44.588Z,98.94
2022-10-30T19:14:16.051Z,98.81
2022-10-30T19:16:45.540Z,99.62
2022-10-30T19:19:15.213Z,95.82
2022-10-30T19:21:44.641Z,98.37
2022-10-30T19:24:17.896Z,97.57
2022-10-30T19:26:47.308Z,99.63
2022-10-30T19:29:16.676Z,100.00
2022-10-30T19:31:45.987Z,97.37
2022-10-30T19:34:18.155Z,98.85
2022-10-30T19:36:48.808Z,96.29
2022-10-30T19:39:20.023Z,98.20
2022-10-30T19:41:49.683Z,96.99
2022-10-30T19:44:20.376Z,98.03
2022-10-30T19:46:50.861Z,97.13
2022-10-30T19:49:21.285Z,95.58
2022-10-30T19:51:50.663Z,98.45
2022-10-30T19:54:21.820Z,99.17
2022-10-30T19:56:52.251Z,97.73
2022-10-30T19:59:21.871Z,98.54
2022-10-30T20:01:51.621Z,98.09
2022-10-30T20:04:21.263Z,97.79
2022-10-30T20:07:05.061Z,98.71
2022-10-30T20:09:39.256Z,99.34
2022-10-30T20:12:08.764Z,98.79
2022-10-30T20:14:38.903Z,98.05
2022-10-30T20:17:08.406Z,98.13
2022-10-30T20:19:38.468Z,100.00
2022-10-30T20:22:07.731Z,99.25
2022-10-30T20:24:38.928Z,99.86
2022-10-30T20:27:08.768Z,99.63
2022-10-30T20:29:41.446Z,96.55
2022-10-30T20:32:11.337Z,99.10
2022-10-30T20:34:40.918Z,100.00
2022-10-30T20:37:11.353Z,98.57
2022-10-30T20:39:42.432Z,96.70
2022-10-30T20:42:12.442Z,98.88
2022-10-30T20:44:42.063Z,100.00
2022-10-30T20:47:11.282Z,96.45
2022-10-30T20:49:41.155Z,96.90
2022-10-30T20:52:10.609Z,97.72
2022-10-30T20:54:42.216Z,98.29
2022-10-30T20:57:12.368Z,97.69
2022-10-30T20:59:41.676Z,99.52
2022-10-30T21:02:12.768Z,99.46
2022-10-30T21:04:42.486Z,98.55
2022-10-30T21:07:11.790Z,97.19
2022-10-30T21:09:42.579Z,97.06
2022-10-30T21:12:11.982Z,94.52
2022-10-30T21:14:41.500Z,95.61
2022-10-30T21:17:11.656Z,99.52
2022-10-30T21:19:40.965Z,97.21
2022-10-30T21:22:10.540Z,95.56
2022-10-30T21:24:41.569Z,95.38
2022-10-30T21:27:11.112Z,94.03
2022-10-30T21:29:40.620Z,97.16
2022-10-30T21:32:10.030Z,96.80
2022-10-30T21:34:39.360Z,96.22
2022-10-30T21:37:08.685Z,92.90
2022-10-30T21:39:38.171Z,95.47
2022-10-30T21:42:10.902Z,96.28
2022-10-30T21:44:40.582Z,93.87
2022-10-30T21:47:10.053Z,93.72
2022-10-30T21:49:39.499Z,94.68
2022-10-30T21:52:08.790Z,94.29
2022-10-30T21:54:40.351Z,96.93
2022-10-30T21:59:45.517Z,93.97
2022-10-30T22:02:15.774Z,95.32
2022-10-30T22:04:45.093Z,96.17
2022-10-30T22:07:15.153Z,97.74
2022-10-30T22:09:44.414Z,96.05
2022-10-30T22:12:15.157Z,93.78
2022-10-30T22:14:44.150Z,95.86
2022-10-30T22:17:13.901Z,93.20
2022-10-30T22:19:43.304Z,93.94
2022-10-30T22:22:12.667Z,95.79
2022-10-30T22:24:41.977Z,96.36
2022-10-30T22:27:11.044Z,94.79
2022-10-30T22:29:41.542Z,93.74
2022-10-30T22:32:11.151Z,97.31
2022-10-30T22:34:40.571Z,97.95
2022-10-30T22:37:10.075Z,94.05
2022-10-30T22:39:39.391Z,93.89
2022-10-30T22:42:08.700Z,95.25
2022-10-30T22:44:37.989Z,95.56
2022-10-30T22:47:08.692Z,94.82
2022-10-30T22:49:38.643Z,92.45
2022-10-30T22:52:07.911Z,92.50
2022-10-30T22:54:37.225Z,95.86
2022-10-30T22:57:06.856Z,95.12
2022-10-30T22:59:36.169Z,94.65
2022-10-30T23:02:05.663Z,95.34
2022-10-30T23:04:37.174Z,97.61
2022-10-30T23:07:06.596Z,94.74
2022-10-30T23:09:35.976Z,92.93
2022-10-30T23:12:05.741Z,92.79
2022-10-30T23:14:35.397Z,92.44
2022-10-30T23:17:04.724Z,92.52
2022-10-30T23:19:35.424Z,92.21
2022-10-30T23:22:06.397Z,92.16
2022-10-30T23:24:35.685Z,94.61
2022-10-30T23:27:05.174Z,95.60
2022-10-30T23:29:34.604Z,96.74
2022-10-30T23:32:04.033Z,93.77
2022-10-30T23:34:33.387Z,95.44
2022-10-30T23:37:04.257Z,95.86
2022-10-30T23:39:33.685Z,95.13
2022-10-30T23:42:02.952Z,93.49
2022-10-30T23:44:32.300Z,93.06
2022-10-30T23:47:01.778Z,93.18
2022-10-30T23:49:34.095Z,97.99
2022-10-30T23:52:05.494Z,94.94
2022-10-30T23:54:35.155Z,95.82
2022-10-30T23:57:04.984Z,93.02
2022-10-30T23:59:34.309Z,94.99
